createdAt,value
2023-05-24T00:01:07.484Z,12.71
2023-05-24T00:03:39.457Z,12.56
2023-05-24T00:06:08.549Z,12.43
2023-05-24T00:08:37.288Z,12.49
2023-05-24T00:11:07.290Z,12.36
2023-05-24T00:13:35.914Z,12.38
2023-05-24T00:16:05.086Z,12.15
2023-05-24T00:18:33.756Z,11.99
2023-05-24T00:21:02.376Z,11.87
2023-05-24T00:23:31.025Z,11.76
2023-05-24T00:25:59.711Z,11.59
2023-05-24T00:28:29.419Z,11.50
2023-05-24T00:30:58.333Z,11.50
2023-05-24T00:33:28.080Z,11.62
2023-05-24T00:35:57.386Z,11.56
2023-05-24T00:38:26.833Z,11.37
2023-05-24T00:40:56.424Z,11.30
2023-05-24T00:43:25.395Z,11.19
2023-05-24T00:46:18.771Z,11.07
2023-05-24T00:48:49.552Z,10.90
2023-05-24T00:51:20.222Z,10.79
2023-05-24T00:53:50.434Z,10.74
2023-05-24T00:56:20.638Z,10.68
2023-05-24T00:58:50.856Z,10.61
2023-05-24T01:01:21.592Z,10.61
2023-05-24T01:03:51.455Z,10.59
2023-05-24T01:06:20.371Z,10.57
2023-05-24T01:09:09.469Z,10.41
2023-05-24T01:11:54.795Z,10.26
2023-05-24T01:14:31.101Z,10.15
2023-05-24T01:17:09.436Z,10.05
2023-05-24T01:19:50.445Z,9.98
2023-05-24T01:23:00.987Z,9.87
2023-05-24T01:25:50.995Z,9.91
2023-05-24T01:28:22.541Z,9.99
2023-05-24T01:30:56.855Z,10.11
2023-05-24T01:33:26.747Z,10.01
2023-05-24T01:35:55.374Z,9.96
2023-05-24T01:38:24.059Z,9.97
2023-05-24T01:41:00.432Z,9.95
2023-05-24T01:43:37.809Z,10.12
2023-05-24T01:46:14.924Z,10.11
2023-05-24T01:48:55.619Z,10.19
2023-05-24T01:51:27.640Z,10.12
2023-05-24T01:53:59.644Z,10.17
2023-05-24T01:56:29.357Z,10.01
2023-05-24T01:59:02.825Z,10.08
2023-05-24T02:01:32.624Z,10.18
2023-05-24T02:04:01.949Z,10.10
2023-05-24T02:06:31.049Z,10.23
2023-05-24T02:08:59.703Z,10.19
2023-05-24T02:11:28.339Z,10.11
2023-05-24T02:13:58.411Z,10.12
2023-05-24T02:16:30.850Z,10.26
2023-05-24T02:19:00.006Z,10.11
2023-05-24T02:21:29.909Z,10.27
2023-05-24T02:23:58.591Z,10.21
2023-05-24T02:26:26.965Z,10.19
2023-05-24T02:28:55.658Z,10.48
2023-05-24T02:31:28.772Z,10.68
2023-05-24T02:33:57.247Z,10.61
2023-05-24T02:36:26.065Z,10.58
2023-05-24T02:38:55.255Z,10.67
2023-05-24T02:41:23.906Z,10.68
2023-05-24T02:43:52.240Z,10.70
2023-05-24T02:46:20.930Z,10.72
2023-05-24T02:48:50.782Z,10.83
2023-05-24T02:51:19.811Z,10.85
2023-05-24T02:53:49.138Z,10.73
2023-05-24T02:56:17.934Z,10.83
2023-05-24T02:58:46.661Z,10.92
2023-05-24T03:01:17.538Z,11.03
2023-05-24T03:03:47.397Z,10.91
2023-05-24T03:06:17.963Z,11.00
2023-05-24T03:08:49.352Z,10.93
2023-05-24T03:11:21.853Z,10.81
2023-05-24T03:13:51.025Z,10.89
2023-05-24T03:16:21.186Z,10.85
2023-05-24T03:18:51.093Z,10.87
2023-05-24T03:21:21.448Z,10.74
2023-05-24T03:23:50.264Z,10.74
2023-05-24T03:26:20.668Z,10.70
2023-05-24T03:28:50.701Z,10.71
2023-05-24T03:31:24.251Z,10.74
2023-05-24T03:33:55.471Z,10.47
2023-05-24T03:36:28.071Z,10.45
2023-05-24T03:38:58.487Z,10.18
2023-05-24T03:41:28.603Z,10.08
2023-05-24T03:44:02.126Z,10.22
2023-05-24T03:46:32.722Z,10.12
2023-05-24T03:49:02.714Z,9.97
2023-05-24T03:51:33.005Z,9.84
2023-05-24T03:54:01.637Z,9.72
2023-05-24T03:56:30.302Z,9.72
2023-05-24T03:59:00.846Z,9.59
2023-05-24T04:01:34.221Z,9.57
2023-05-24T04:04:03.695Z,9.57
2023-05-24T04:06:33.590Z,9.54
2023-05-24T04:09:02.731Z,9.69
2023-05-24T04:11:32.457Z,9.82
2023-05-24T04:14:01.436Z,9.82
2023-05-24T04:16:34.366Z,9.66
2023-05-24T04:19:06.269Z,9.54
2023-05-24T04:21:36.736Z,9.66
2023-05-24T04:24:05.989Z,9.69
2023-05-24T04:26:37.593Z,9.75
2023-05-24T04:29:07.882Z,9.86
2023-05-24T04:31:36.927Z,9.89
2023-05-24T04:34:07.884Z,9.84
2023-05-24T04:36:38.354Z,9.82
2023-05-24T04:39:07.244Z,10.06
2023-05-24T04:41:37.293Z,10.07
2023-05-24T04:44:06.006Z,10.09
2023-05-24T04:46:36.230Z,10.14
2023-05-24T04:49:05.741Z,10.25
2023-05-24T04:51:38.401Z,10.20
2023-05-24T04:54:09.677Z,10.14
2023-05-24T04:56:39.321Z,10.25
2023-05-24T04:59:09.616Z,10.17
2023-05-24T05:01:38.397Z,10.39
2023-05-24T05:04:08.017Z,10.46
2023-05-24T05:06:39.622Z,10.45
2023-05-24T05:09:10.636Z,10.32
2023-05-24T05:11:40.047Z,10.16
2023-05-24T05:14:09.871Z,10.34
2023-05-24T05:16:39.532Z,10.28
2023-05-24T05:19:08.344Z,10.38
2023-05-24T05:21:39.633Z,10.51
2023-05-24T05:24:09.955Z,10.58
2023-05-24T05:26:38.634Z,10.88
2023-05-24T05:29:07.276Z,10.95
2023-05-24T05:31:35.965Z,10.91
2023-05-24T05:34:04.641Z,11.01
2023-05-24T05:36:33.239Z,11.25
2023-05-24T05:39:01.850Z,10.93
2023-05-24T05:41:31.863Z,11.13
2023-05-24T05:44:00.629Z,11.06
2023-05-24T05:46:29.291Z,11.01
2023-05-24T05:48:57.902Z,10.95
2023-05-24T05:51:26.770Z,10.91
2023-05-24T05:53:55.515Z,10.97
2023-05-24T05:56:24.216Z,11.12
2023-05-24T05:58:54.284Z,10.93
2023-05-24T06:01:23.482Z,10.91
2023-05-24T06:03:53.252Z,10.98
2023-05-24T06:06:21.967Z,11.07
2023-05-24T06:08:50.607Z,11.06
2023-05-24T06:11:19.316Z,11.28
2023-05-24T06:13:47.963Z,10.98
2023-05-24T06:16:18.375Z,10.93
2023-05-24T06:19:01.326Z,10.95
2023-05-24T06:21:37.402Z,11.23
2023-05-24T06:24:09.805Z,11.13
2023-05-24T06:26:38.508Z,11.24
2023-05-24T06:29:07.123Z,11.52
2023-05-24T06:31:37.196Z,11.59
2023-05-24T06:34:05.915Z,11.55
2023-05-24T06:36:36.037Z,11.77
2023-05-24T06:39:05.387Z,11.98
2023-05-24T06:41:34.089Z,11.49
2023-05-24T06:44:02.788Z,11.38
2023-05-24T06:46:31.594Z,11.52
2023-05-24T06:49:01.966Z,11.51
2023-05-24T06:51:33.476Z,11.85
2023-05-24T06:54:02.137Z,12.06
2023-05-24T06:56:30.940Z,12.23
2023-05-24T06:59:01.273Z,12.26
2023-05-24T07:01:30.827Z,12.27
2023-05-24T07:04:00.935Z,12.26
2023-05-24T07:06:29.939Z,12.54
2023-05-24T07:08:58.577Z,12.93
2023-05-24T07:11:27.563Z,12.66
2023-05-24T07:13:56.514Z,12.88
2023-05-24T07:16:25.187Z,13.17
2023-05-24T07:18:54.173Z,12.97
2023-05-24T07:21:23.930Z,13.16
2023-05-24T07:23:53.304Z,13.15
2023-05-24T07:26:22.012Z,13.24
2023-05-24T07:28:50.778Z,13.34
2023-05-24T07:31:19.271Z,12.94
2023-05-24T07:33:47.968Z,12.58
2023-05-24T07:36:16.859Z,12.67
2023-05-24T07:38:47.074Z,12.86
2023-05-24T07:41:15.929Z,12.72
2023-05-24T07:43:44.581Z,13.16
2023-05-24T07:46:13.230Z,13.52
2023-05-24T07:48:41.949Z,13.82
2023-05-24T07:51:10.665Z,14.07
2023-05-24T07:53:40.180Z,14.16
2023-05-24T07:56:10.232Z,13.42
2023-05-24T07:58:40.734Z,13.07
2023-05-24T08:01:09.301Z,13.00
2023-05-24T08:03:38.240Z,12.82
2023-05-24T08:06:07.418Z,12.51
2023-05-24T08:08:36.368Z,12.55
2023-05-24T08:11:04.708Z,12.64
2023-05-24T08:13:35.229Z,12.72
2023-05-24T08:16:03.983Z,12.98
2023-05-24T08:18:32.332Z,13.29
2023-05-24T08:21:00.981Z,13.42
2023-05-24T08:23:30.709Z,13.35
2023-05-24T08:25:59.604Z,13.11
2023-05-24T08:28:29.204Z,12.69
2023-05-24T08:30:59.436Z,12.70
2023-05-24T08:33:29.101Z,12.88
2023-05-24T08:35:57.374Z,13.53
2023-05-24T08:38:26.272Z,14.05
2023-05-24T08:40:55.010Z,14.14
2023-05-24T08:43:24.702Z,13.94
2023-05-24T08:45:54.788Z,13.91
2023-05-24T08:48:26.904Z,13.45
2023-05-24T08:50:56.042Z,13.57
2023-05-24T08:53:25.237Z,13.40
2023-05-24T08:55:55.894Z,13.42
2023-05-24T08:58:25.580Z,13.12
2023-05-24T09:00:54.156Z,13.26
2023-05-24T09:03:25.074Z,13.61
2023-05-24T09:05:54.837Z,13.59
2023-05-24T09:08:23.894Z,13.58
2023-05-24T09:10:54.752Z,13.90
2023-05-24T09:13:25.683Z,13.85
2023-05-24T09:15:54.686Z,13.95
2023-05-24T09:18:24.587Z,13.70
2023-05-24T09:20:53.498Z,13.86
2023-05-24T09:23:22.696Z,13.52
2023-05-24T09:25:52.142Z,13.38
2023-05-24T09:28:21.927Z,13.49
2023-05-24T09:31:02.361Z,13.47
2023-05-24T09:33:35.691Z,13.29
2023-05-24T09:36:06.268Z,13.49
2023-05-24T09:38:36.460Z,13.82
2023-05-24T09:41:07.456Z,14.00
2023-05-24T09:43:48.241Z,14.10
2023-05-24T09:46:19.955Z,14.51
2023-05-24T09:48:59.946Z,14.85
2023-05-24T09:51:28.472Z,15.11
2023-05-24T09:53:59.752Z,14.88
2023-05-24T09:56:28.752Z,15.42
2023-05-24T09:58:57.953Z,16.07
2023-05-24T10:01:28.260Z,16.23
2023-05-24T10:04:03.229Z,15.83
2023-05-24T10:06:37.249Z,15.26
2023-05-24T10:09:07.982Z,14.36
2023-05-24T10:11:38.040Z,14.03
2023-05-24T10:14:07.559Z,14.12
2023-05-24T10:16:38.107Z,14.27
2023-05-24T10:19:08.680Z,14.48
2023-05-24T10:21:39.809Z,14.78
2023-05-24T10:24:10.700Z,14.37
2023-05-24T10:26:42.504Z,14.19
2023-05-24T10:29:25.637Z,13.82
2023-05-24T10:31:55.490Z,13.83
2023-05-24T10:34:26.574Z,14.01
2023-05-24T10:36:55.379Z,13.94
2023-05-24T10:39:27.176Z,14.08
2023-05-24T10:41:57.970Z,14.28
2023-05-24T10:44:31.952Z,14.37
2023-05-24T10:47:11.529Z,14.48
2023-05-24T10:49:51.280Z,14.76
2023-05-24T10:52:20.174Z,15.29
2023-05-24T10:55:05.781Z,15.34
2023-05-24T10:57:34.217Z,14.52
2023-05-24T11:00:35.814Z,14.58
2023-05-24T11:03:08.777Z,14.52
2023-05-24T11:05:53.396Z,14.70
2023-05-24T11:08:27.538Z,14.70
2023-05-24T11:11:30.387Z,15.41
2023-05-24T11:14:02.829Z,15.40
2023-05-24T11:16:35.848Z,15.56
2023-05-24T11:19:14.735Z,15.80
2023-05-24T11:21:47.155Z,15.26
2023-05-24T11:24:18.766Z,14.85
2023-05-24T11:26:48.029Z,15.06
2023-05-24T11:29:20.925Z,14.55
2023-05-24T11:31:54.563Z,15.24
2023-05-24T11:34:27.168Z,15.80
2023-05-24T11:36:57.408Z,16.10
2023-05-24T11:39:29.901Z,15.61
2023-05-24T11:41:58.728Z,15.41
2023-05-24T11:44:29.108Z,15.96
2023-05-24T11:47:01.353Z,16.23
2023-05-24T11:49:30.284Z,16.85
2023-05-24T11:52:01.745Z,15.98
2023-05-24T11:54:32.869Z,15.82
2023-05-24T11:57:02.045Z,15.38
2023-05-24T11:59:31.774Z,15.56
2023-05-24T12:02:01.896Z,15.80
2023-05-24T12:04:32.220Z,15.82
2023-05-24T12:07:03.426Z,16.18
2023-05-24T12:09:32.636Z,16.45
2023-05-24T12:12:02.055Z,16.08
2023-05-24T12:14:34.590Z,16.48
2023-05-24T12:17:03.541Z,16.57
2023-05-24T12:19:34.669Z,16.76
2023-05-24T12:22:07.527Z,17.14
2023-05-24T12:24:38.662Z,16.20
2023-05-24T12:27:08.669Z,15.83
2023-05-24T12:29:39.702Z,15.58
2023-05-24T12:32:13.239Z,15.20
2023-05-24T12:34:43.623Z,15.15
2023-05-24T12:37:14.265Z,15.29
2023-05-24T12:39:44.459Z,15.19
2023-05-24T12:42:14.292Z,15.86
2023-05-24T12:44:44.972Z,15.90
2023-05-24T12:47:13.529Z,15.99
2023-05-24T12:49:42.290Z,15.76
2023-05-24T12:52:12.683Z,15.91
2023-05-24T12:54:42.788Z,15.91
2023-05-24T12:57:11.614Z,15.83
2023-05-24T12:59:40.695Z,16.46
2023-05-24T13:02:09.494Z,16.83
2023-05-24T13:04:38.552Z,17.11
2023-05-24T13:07:08.197Z,17.65
2023-05-24T13:09:36.829Z,17.24
2023-05-24T13:12:08.064Z,17.25
2023-05-24T13:14:37.271Z,16.91
2023-05-24T13:17:06.554Z,16.88
2023-05-24T13:19:35.243Z,16.99
2023-05-24T13:22:04.191Z,16.31
2023-05-24T13:24:32.841Z,16.11
2023-05-24T13:27:01.508Z,16.28
2023-05-24T13:29:36.751Z,16.24
2023-05-24T13:32:11.791Z,16.48
2023-05-24T13:34:40.844Z,16.52
2023-05-24T13:37:09.832Z,16.52
2023-05-24T13:39:39.591Z,16.14
2023-05-24T13:42:09.132Z,16.15
2023-05-24T13:44:39.635Z,16.23
2023-05-24T13:47:09.012Z,16.77
2023-05-24T13:49:37.998Z,16.91
2023-05-24T13:52:06.927Z,16.90
2023-05-24T13:54:35.701Z,16.62
2023-05-24T13:57:05.257Z,16.13
2023-05-24T13:59:34.375Z,16.24
2023-05-24T14:02:04.697Z,16.15
2023-05-24T14:04:33.108Z,16.38
2023-05-24T14:07:01.878Z,16.67
2023-05-24T14:09:30.867Z,17.16
2023-05-24T14:11:59.557Z,16.67
2023-05-24T14:16:59.725Z,16.41
2023-05-24T14:19:30.075Z,16.24
2023-05-24T14:21:58.744Z,16.20
2023-05-24T14:24:27.731Z,16.29
2023-05-24T14:26:56.593Z,16.44
2023-05-24T14:29:25.360Z,16.20
2023-05-24T14:31:53.677Z,16.64
2023-05-24T14:34:22.412Z,16.83
2023-05-24T14:36:52.329Z,16.58
2023-05-24T14:39:21.709Z,16.04
2023-05-24T14:41:50.505Z,15.64
2023-05-24T14:44:19.218Z,15.56
2023-05-24T14:46:48.281Z,15.15
2023-05-24T14:49:17.113Z,15.27
2023-05-24T14:51:49.334Z,15.42
2023-05-24T14:54:19.449Z,15.27
2023-05-24T14:56:48.238Z,15.63
2023-05-24T14:59:17.120Z,15.90
2023-05-24T15:01:45.487Z,16.42
2023-05-24T15:04:14.186Z,16.16
2023-05-24T15:06:43.531Z,16.13
2023-05-24T15:09:12.287Z,17.00
2023-05-24T15:11:42.343Z,16.62
2023-05-24T15:14:10.985Z,16.97
2023-05-24T15:16:39.705Z,15.83
2023-05-24T15:19:09.197Z,15.43
2023-05-24T15:21:38.204Z,15.71
2023-05-24T15:24:07.209Z,15.88
2023-05-24T15:26:35.901Z,15.63
2023-05-24T15:29:05.902Z,15.45
2023-05-24T15:31:34.989Z,15.74
2023-05-24T15:34:04.959Z,15.39
2023-05-24T15:36:33.688Z,15.38
2023-05-24T15:39:02.003Z,14.94
2023-05-24T15:41:30.614Z,15.19
2023-05-24T15:44:00.727Z,14.97
2023-05-24T15:46:30.745Z,15.04
2023-05-24T15:48:59.496Z,14.81
2023-05-24T15:54:00.144Z,14.90
2023-05-24T15:56:28.735Z,14.75
2023-05-24T15:58:57.730Z,14.49
2023-05-24T16:01:26.444Z,14.28
2023-05-24T16:03:56.564Z,13.97
2023-05-24T16:06:25.355Z,13.65
2023-05-24T16:08:54.158Z,13.60
2023-05-24T16:11:23.694Z,13.48
2023-05-24T16:13:53.550Z,13.79
2023-05-24T16:16:23.754Z,13.81
2023-05-24T16:18:52.677Z,13.95
2023-05-24T16:21:24.411Z,13.83
2023-05-24T16:23:53.072Z,14.07
2023-05-24T16:26:21.712Z,13.97
2023-05-24T16:28:51.482Z,13.97
2023-05-24T16:31:20.371Z,14.06
2023-05-24T16:33:49.203Z,13.81
2023-05-24T16:36:18.077Z,13.69
2023-05-24T16:38:47.900Z,13.71
2023-05-24T16:41:16.511Z,13.79
2023-05-24T16:43:45.339Z,13.55
2023-05-24T16:46:14.050Z,13.66
2023-05-24T16:48:42.763Z,13.69
2023-05-24T16:51:12.231Z,13.57
2023-05-24T16:53:40.779Z,13.49
2023-05-24T16:56:10.937Z,13.51
2023-05-24T16:58:39.528Z,13.61
2023-05-24T17:01:08.316Z,13.64
2023-05-24T17:03:37.049Z,13.74
2023-05-24T17:06:06.230Z,13.40
2023-05-24T17:08:36.952Z,13.26
2023-05-24T17:11:06.582Z,13.50
2023-05-24T17:13:36.662Z,13.42
2023-05-24T17:16:05.735Z,13.46
2023-05-24T17:18:34.635Z,13.32
2023-05-24T17:21:04.538Z,13.36
2023-05-24T17:23:34.821Z,13.05
2023-05-24T17:26:03.968Z,12.93
2023-05-24T17:28:35.527Z,12.79
2023-05-24T17:31:05.840Z,12.79
2023-05-24T17:33:34.497Z,12.76
2023-05-24T17:36:04.428Z,12.95
2023-05-24T17:38:33.900Z,13.01
2023-05-24T17:41:02.559Z,13.29
2023-05-24T17:43:32.628Z,13.31
2023-05-24T17:46:06.097Z,13.21
2023-05-24T17:48:38.041Z,13.22
2023-05-24T17:51:08.205Z,13.23
2023-05-24T17:53:38.027Z,13.12
2023-05-24T17:56:07.746Z,13.03
2023-05-24T17:58:37.361Z,13.12
2023-05-24T18:01:07.238Z,13.07
2023-05-24T18:03:38.101Z,13.00
2023-05-24T18:06:07.963Z,12.98
2023-05-24T18:08:38.758Z,12.76
2023-05-24T18:11:09.510Z,12.69
2023-05-24T18:13:40.219Z,12.63
2023-05-24T18:16:12.819Z,12.66
2023-05-24T18:18:43.880Z,12.62
2023-05-24T18:21:13.133Z,12.58
2023-05-24T18:23:42.605Z,12.55
2023-05-24T18:26:13.101Z,12.45
2023-05-24T18:28:42.119Z,12.33
2023-05-24T18:31:11.669Z,12.17
2023-05-24T18:33:40.474Z,11.98
2023-05-24T18:36:10.784Z,11.75
2023-05-24T18:38:40.176Z,11.63
2023-05-24T18:41:10.168Z,11.53
2023-05-24T18:43:39.072Z,11.44
2023-05-24T18:46:08.993Z,11.42
2023-05-24T18:48:37.906Z,11.35
2023-05-24T18:51:07.845Z,11.19
2023-05-24T18:53:37.838Z,11.05
2023-05-24T18:56:06.973Z,10.99
2023-05-24T18:58:35.641Z,10.97
2023-05-24T19:01:04.382Z,10.93
2023-05-24T19:03:32.781Z,10.72
2023-05-24T19:06:01.450Z,10.66
2023-05-24T19:08:30.072Z,10.48
2023-05-24T19:10:59.800Z,10.47
2023-05-24T19:13:28.548Z,10.52
2023-05-24T19:16:00.458Z,10.54
2023-05-24T19:18:29.064Z,10.52
2023-05-24T19:20:57.715Z,10.42
2023-05-24T19:23:26.332Z,10.40
2023-05-24T19:25:54.933Z,10.36
2023-05-24T19:28:25.130Z,10.31
2023-05-24T19:30:53.451Z,10.32
2023-05-24T19:33:22.141Z,10.34
2023-05-24T19:35:51.594Z,10.29
2023-05-24T19:38:20.497Z,10.26
2023-05-24T19:40:49.291Z,10.20
2023-05-24T19:43:17.872Z,10.16
2023-05-24T19:45:51.641Z,10.16
2023-05-24T19:48:20.448Z,10.22
2023-05-24T19:50:49.179Z,10.19
2023-05-24T19:53:17.972Z,10.17
2023-05-24T19:55:46.631Z,10.22
2023-05-24T19:58:15.277Z,10.22
2023-05-24T20:00:43.933Z,10.20
2023-05-24T20:03:14.182Z,10.24
2023-05-24T20:05:43.911Z,10.19
2023-05-24T20:08:12.365Z,10.19
2023-05-24T20:10:41.568Z,10.15
2023-05-24T20:13:10.381Z,10.09
2023-05-24T20:15:39.052Z,10.09
2023-05-24T20:18:07.859Z,10.00
2023-05-24T20:20:38.367Z,9.95
2023-05-24T20:23:07.044Z,9.93
2023-05-24T20:25:35.957Z,9.98
2023-05-24T20:28:12.745Z,9.95
2023-05-24T20:30:46.957Z,9.90
2023-05-24T20:33:15.614Z,9.87
2023-05-24T20:35:45.734Z,9.94
2023-05-24T20:38:15.157Z,9.91
2023-05-24T20:40:43.434Z,9.88
2023-05-24T20:43:12.104Z,9.87
2023-05-24T20:45:40.903Z,9.99
2023-05-24T20:48:09.717Z,9.95
2023-05-24T20:50:38.119Z,9.91
2023-05-24T20:53:08.161Z,9.88
2023-05-24T20:55:36.951Z,9.83
2023-05-24T20:58:05.889Z,9.85
2023-05-24T21:00:34.297Z,9.80
2023-05-24T21:03:03.263Z,9.82
2023-05-24T21:05:32.651Z,9.88
2023-05-24T21:08:01.285Z,9.87
2023-05-24T21:10:32.540Z,9.96
2023-05-24T21:13:01.427Z,9.91
2023-05-24T21:15:30.063Z,9.96
2023-05-24T21:17:58.668Z,9.97
2023-05-24T21:20:27.475Z,9.95
2023-05-24T21:22:56.115Z,10.00
2023-05-24T21:25:24.744Z,10.01
2023-05-24T21:27:54.454Z,9.99
2023-05-24T21:30:23.226Z,9.95
2023-05-24T21:32:52.289Z,9.93
2023-05-24T21:35:20.988Z,9.95
2023-05-24T21:37:49.601Z,9.93
2023-05-24T21:40:18.281Z,9.98
2023-05-24T21:42:47.125Z,9.95
2023-05-24T21:45:17.149Z,9.92
2023-05-24T21:47:45.854Z,9.83
2023-05-24T21:50:14.486Z,9.87
2023-05-24T21:52:43.148Z,9.81
2023-05-24T21:55:11.868Z,9.80
2023-05-24T21:57:40.604Z,9.77
2023-05-24T22:00:11.890Z,9.80
2023-05-24T22:02:42.059Z,9.85
2023-05-24T22:05:47.727Z,9.89
2023-05-24T22:08:16.447Z,9.92
2023-05-24T22:10:44.984Z,9.92
2023-05-24T22:13:13.608Z,9.90
2023-05-24T22:15:42.379Z,9.86
2023-05-24T22:18:12.908Z,9.89
2023-05-24T22:20:41.518Z,9.92
2023-05-24T22:23:10.284Z,9.82
2023-05-24T22:25:39.977Z,9.72
2023-05-24T22:28:09.773Z,9.68
2023-05-24T22:30:38.476Z,9.65
2023-05-24T22:33:07.134Z,9.56
2023-05-24T22:35:37.267Z,9.51
2023-05-24T22:38:05.902Z,9.44
2023-05-24T22:40:36.618Z,9.41
2023-05-24T22:43:05.408Z,9.32
2023-05-24T22:45:34.071Z,9.32
2023-05-24T22:48:03.505Z,9.30
2023-05-24T22:50:32.264Z,9.21
2023-05-24T22:53:02.600Z,9.16
2023-05-24T22:55:30.992Z,9.24
2023-05-24T22:57:59.613Z,9.18
2023-05-24T23:00:28.356Z,9.15
2023-05-24T23:02:57.074Z,9.20
2023-05-24T23:05:25.776Z,9.18
2023-05-24T23:07:55.030Z,9.12
2023-05-24T23:10:25.018Z,9.11
2023-05-24T23:12:53.916Z,9.10
2023-05-24T23:15:22.566Z,9.06
2023-05-24T23:17:52.476Z,8.99
2023-05-24T23:20:21.368Z,8.96
2023-05-24T23:22:50.017Z,8.90
2023-05-24T23:25:18.510Z,8.97
2023-05-24T23:27:48.691Z,8.96
2023-05-24T23:30:17.525Z,8.90
2023-05-24T23:32:46.262Z,8.90
2023-05-24T23:35:15.016Z,8.90
2023-05-24T23:37:43.724Z,8.89
2023-05-24T23:40:13.367Z,9.02
2023-05-24T23:42:42.029Z,9.06
2023-05-24T23:45:15.152Z,9.03
2023-05-24T23:47:44.419Z,8.93
2023-05-24T23:50:17.310Z,8.87
2023-05-24T23:52:47.438Z,8.84
2023-05-24T23:55:16.823Z,8.84
2023-05-24T23:57:45.863Z,8.78
